sensor_id;sensor_type;location;lat;lon;timestamp;P1;durP1;ratioP1;P2;durP2;ratioP2
48813;SDS011;34634;44.108;3.074;2023-06-14T06:52:25;6.15;;;3.83;;
48813;SDS011;34634;44.108;3.074;2023-06-14T06:54:52;4.85;;;3.95;;
48813;SDS011;34634;44.108;3.074;2023-06-14T06:57:20;7.60;;;4.50;;
48813;SDS011;34634;44.108;3.074;2023-06-14T06:59:48;6.28;;;3.67;;
48813;SDS011;34634;44.108;3.074;2023-06-14T07:02:14;5.50;;;3.78;;
48813;SDS011;34634;44.108;3.074;2023-06-14T07:04:41;6.22;;;3.92;;
48813;SDS011;34634;44.108;3.074;2023-06-14T07:07:07;9.63;;;4.15;;
48813;SDS011;34634;44.108;3.074;2023-06-14T07:09:35;8.30;;;4.03;;
48813;SDS011;34634;44.108;3.074;2023-06-14T07:12:01;10.77;;;4.43;;
48813;SDS011;34634;44.108;3.074;2023-06-14T07:14:27;7.38;;;4.65;;
48813;SDS011;34634;44.108;3.074;2023-06-14T07:16:55;4.63;;;4.10;;
48813;SDS011;34634;44.108;3.074;2023-06-14T07:19:21;5.45;;;4.10;;
48813;SDS011;34634;44.108;3.074;2023-06-14T07:21:47;7.22;;;4.00;;
48813;SDS011;34634;44.108;3.074;2023-06-14T07:24:14;4.45;;;3.53;;
48813;SDS011;34634;44.108;3.074;2023-06-14T07:26:41;4.97;;;3.40;;
48813;SDS011;34634;44.108;3.074;2023-06-14T07:29:07;4.57;;;3.17;;
48813;SDS011;34634;44.108;3.074;2023-06-14T07:31:33;4.82;;;3.35;;
48813;SDS011;34634;44.108;3.074;2023-06-14T07:34:00;5.00;;;3.08;;
48813;SDS011;34634;44.108;3.074;2023-06-14T07:36:26;6.68;;;2.95;;
48813;SDS011;34634;44.108;3.074;2023-06-14T07:38:52;4.78;;;3.08;;
48813;SDS011;34634;44.108;3.074;2023-06-14T07:41:19;5.85;;;3.47;;
48813;SDS011;34634;44.108;3.074;2023-06-14T07:43:45;9.88;;;2.90;;
48813;SDS011;34634;44.108;3.074;2023-06-14T07:46:12;3.88;;;2.88;;
48813;SDS011;34634;44.108;3.074;2023-06-14T07:48:38;6.10;;;3.40;;
48813;SDS011;34634;44.108;3.074;2023-06-14T07:51:05;3.95;;;3.17;;
48813;SDS011;34634;44.108;3.074;2023-06-14T07:53:31;4.07;;;3.60;;
48813;SDS011;34634;44.108;3.074;2023-06-14T07:55:57;4.45;;;3.03;;
48813;SDS011;34634;44.108;3.074;2023-06-14T07:58:24;5.72;;;3.42;;
48813;SDS011;34634;44.108;3.074;2023-06-14T08:00:50;4.40;;;3.47;;
48813;SDS011;34634;44.108;3.074;2023-06-14T08:03:16;3.97;;;3.15;;
48813;SDS011;34634;44.108;3.074;2023-06-14T08:05:43;7.47;;;3.83;;
48813;SDS011;34634;44.108;3.074;2023-06-14T08:08:09;4.38;;;3.08;;
48813;SDS011;34634;44.108;3.074;2023-06-14T08:10:36;4.97;;;3.10;;
48813;SDS011;34634;44.108;3.074;2023-06-14T08:13:02;5.20;;;3.03;;
48813;SDS011;34634;44.108;3.074;2023-06-14T08:15:28;6.25;;;2.47;;
48813;SDS011;34634;44.108;3.074;2023-06-14T08:17:55;3.00;;;2.70;;
48813;SDS011;34634;44.108;3.074;2023-06-14T08:20:21;4.40;;;2.30;;
48813;SDS011;34634;44.108;3.074;2023-06-14T08:22:47;5.43;;;2.67;;
48813;SDS011;34634;44.108;3.074;2023-06-14T08:25:14;3.50;;;2.63;;
48813;SDS011;34634;44.108;3.074;2023-06-14T08:27:40;2.90;;;2.55;;
48813;SDS011;34634;44.108;3.074;2023-06-14T08:30:07;4.53;;;2.55;;
48813;SDS011;34634;44.108;3.074;2023-06-14T08:32:33;6.03;;;3.40;;
48813;SDS011;34634;44.108;3.074;2023-06-14T08:35:00;5.70;;;3.55;;
48813;SDS011;34634;44.108;3.074;2023-06-14T08:37:26;6.28;;;3.33;;
48813;SDS011;34634;44.108;3.074;2023-06-14T08:39:53;3.47;;;2.90;;
48813;SDS011;34634;44.108;3.074;2023-06-14T08:42:21;5.75;;;2.75;;
48813;SDS011;34634;44.108;3.074;2023-06-14T08:44:50;3.95;;;2.72;;
48813;SDS011;34634;44.108;3.074;2023-06-14T08:47:16;3.78;;;2.50;;
48813;SDS011;34634;44.108;3.074;2023-06-14T08:49:45;3.13;;;2.53;;
48813;SDS011;34634;44.108;3.074;2023-06-14T08:52:13;3.70;;;2.73;;
48813;SDS011;34634;44.108;3.074;2023-06-14T08:54:43;2.60;;;2.40;;
48813;SDS011;34634;44.108;3.074;2023-06-14T08:57:13;3.90;;;2.15;;
48813;SDS011;34634;44.108;3.074;2023-06-14T08:59:45;2.40;;;2.20;;
48813;SDS011;34634;44.108;3.074;2023-06-14T09:02:12;7.25;;;2.45;;
48813;SDS011;34634;44.108;3.074;2023-06-14T09:04:39;4.40;;;2.92;;
48813;SDS011;34634;44.108;3.074;2023-06-14T09:07:06;3.72;;;2.30;;
48813;SDS011;34634;44.108;3.074;2023-06-14T09:09:38;4.22;;;2.30;;
48813;SDS011;34634;44.108;3.074;2023-06-14T09:12:06;5.43;;;2.47;;
48813;SDS011;34634;44.108;3.074;2023-06-14T09:14:33;3.80;;;2.50;;
48813;SDS011;34634;44.108;3.074;2023-06-14T09:17:04;4.22;;;2.35;;
48813;SDS011;34634;44.108;3.074;2023-06-14T09:19:30;4.50;;;2.13;;
48813;SDS011;34634;44.108;3.074;2023-06-14T09:21:56;4.70;;;2.47;;
48813;SDS011;34634;44.108;3.074;2023-06-14T09:24:26;3.53;;;2.30;;
48813;SDS011;34634;44.108;3.074;2023-06-14T09:26:52;2.58;;;2.20;;
48813;SDS011;34634;44.108;3.074;2023-06-14T09:29:19;4.03;;;2.42;;
48813;SDS011;34634;44.108;3.074;2023-06-14T09:31:46;6.50;;;2.05;;
48813;SDS011;34634;44.108;3.074;2023-06-14T09:34:12;2.50;;;2.30;;
48813;SDS011;34634;44.108;3.074;2023-06-14T09:36:39;2.20;;;2.00;;
48813;SDS011;34634;44.108;3.074;2023-06-14T09:39:08;4.40;;;2.28;;
48813;SDS011;34634;44.108;3.074;2023-06-14T09:41:35;4.22;;;2.40;;
48813;SDS011;34634;44.108;3.074;2023-06-14T09:44:02;4.72;;;2.25;;
48813;SDS011;34634;44.108;3.074;2023-06-14T09:46:29;4.97;;;2.08;;
48813;SDS011;34634;44.108;3.074;2023-06-14T09:48:57;3.33;;;2.20;;
48813;SDS011;34634;44.108;3.074;2023-06-14T09:51:23;3.42;;;2.42;;
48813;SDS011;34634;44.108;3.074;2023-06-14T09:53:50;4.35;;;2.28;;
48813;SDS011;34634;44.108;3.074;2023-06-14T09:56:27;3.38;;;2.00;;
48813;SDS011;34634;44.108;3.074;2023-06-14T09:58:58;3.42;;;2.63;;
48813;SDS011;34634;44.108;3.074;2023-06-14T10:01:25;5.13;;;2.28;;
48813;SDS011;34634;44.108;3.074;2023-06-14T10:03:55;7.97;;;2.55;;
48813;SDS011;34634;44.108;3.074;2023-06-14T10:06:22;2.75;;;2.25;;
48813;SDS011;34634;44.108;3.074;2023-06-14T10:08:50;3.38;;;2.25;;
48813;SDS011;34634;44.108;3.074;2023-06-14T10:11:17;3.60;;;2.20;;
48813;SDS011;34634;44.108;3.074;2023-06-14T10:13:43;4.93;;;2.40;;
48813;SDS011;34634;44.108;3.074;2023-06-14T10:16:12;4.07;;;2.60;;
48813;SDS011;34634;44.108;3.074;2023-06-14T10:21:36;4.07;;;2.17;;
48813;SDS011;34634;44.108;3.074;2023-06-14T10:24:05;4.88;;;2.50;;
48813;SDS011;34634;44.108;3.074;2023-06-14T10:26:32;3.53;;;2.50;;
48813;SDS011;34634;44.108;3.074;2023-06-14T10:29:08;6.80;;;2.63;;
48813;SDS011;34634;44.108;3.074;2023-06-14T10:31:41;3.70;;;2.78;;
48813;SDS011;34634;44.108;3.074;2023-06-14T10:34:08;3.15;;;2.80;;
48813;SDS011;34634;44.108;3.074;2023-06-14T10:36:34;3.08;;;2.58;;
48813;SDS011;34634;44.108;3.074;2023-06-14T10:39:05;3.00;;;2.70;;
48813;SDS011;34634;44.108;3.074;2023-06-14T10:41:34;3.35;;;2.53;;
48813;SDS011;34634;44.108;3.074;2023-06-14T10:46:39;2.95;;;2.60;;
48813;SDS011;34634;44.108;3.074;2023-06-14T10:49:06;3.35;;;2.47;;
48813;SDS011;34634;44.108;3.074;2023-06-14T10:51:38;3.20;;;2.60;;
48813;SDS011;34634;44.108;3.074;2023-06-14T10:54:15;5.68;;;2.85;;
48813;SDS011;34634;44.108;3.074;2023-06-14T10:56:48;5.30;;;2.92;;
48813;SDS011;34634;44.108;3.074;2023-06-14T10:59:15;3.08;;;2.78;;
48813;SDS011;34634;44.108;3.074;2023-06-14T11:04:11;3.22;;;2.92;;
48813;SDS011;34634;44.108;3.074;2023-06-14T11:06:48;4.40;;;3.10;;
48813;SDS011;34634;44.108;3.074;2023-06-14T11:11:57;7.13;;;3.00;;
48813;SDS011;34634;44.108;3.074;2023-06-14T11:14:25;4.13;;;2.67;;
48813;SDS011;34634;44.108;3.074;2023-06-14T11:16:51;3.80;;;3.08;;
48813;SDS011;34634;44.108;3.074;2023-06-14T11:19:17;5.22;;;3.08;;
48813;SDS011;34634;44.108;3.074;2023-06-14T11:21:46;3.33;;;2.97;;
48813;SDS011;34634;44.108;3.074;2023-06-14T11:24:13;4.55;;;4.03;;
48813;SDS011;34634;44.108;3.074;2023-06-14T11:26:39;5.25;;;3.45;;
48813;SDS011;34634;44.108;3.074;2023-06-14T11:29:06;4.47;;;3.33;;
48813;SDS011;34634;44.108;3.074;2023-06-14T11:31:33;3.42;;;3.13;;
48813;SDS011;34634;44.108;3.074;2023-06-14T11:33:59;4.28;;;3.17;;
48813;SDS011;34634;44.108;3.074;2023-06-14T11:36:26;7.95;;;3.30;;
48813;SDS011;34634;44.108;3.074;2023-06-14T11:38:58;3.53;;;3.27;;
48813;SDS011;34634;44.108;3.074;2023-06-14T11:41:25;4.22;;;3.47;;
48813;SDS011;34634;44.108;3.074;2023-06-14T11:43:54;4.72;;;3.60;;
48813;SDS011;34634;44.108;3.074;2023-06-14T11:46:21;3.78;;;3.47;;
48813;SDS011;34634;44.108;3.074;2023-06-14T11:48:50;6.95;;;3.53;;
48813;SDS011;34634;44.108;3.074;2023-06-14T11:51:18;4.20;;;3.80;;
48813;SDS011;34634;44.108;3.074;2023-06-14T11:53:46;8.93;;;4.20;;
48813;SDS011;34634;44.108;3.074;2023-06-14T11:56:12;4.40;;;4.00;;
48813;SDS011;34634;44.108;3.074;2023-06-14T11:58:39;5.28;;;4.63;;
48813;SDS011;34634;44.108;3.074;2023-06-14T12:01:05;7.75;;;5.03;;
48813;SDS011;34634;44.108;3.074;2023-06-14T12:03:32;4.45;;;4.05;;
48813;SDS011;34634;44.108;3.074;2023-06-14T12:06:02;8.40;;;4.80;;
48813;SDS011;34634;44.108;3.074;2023-06-14T12:08:34;6.82;;;4.60;;
48813;SDS011;34634;44.108;3.074;2023-06-14T12:11:05;6.82;;;4.72;;
48813;SDS011;34634;44.108;3.074;2023-06-14T12:13:31;9.43;;;4.35;;
48813;SDS011;34634;44.108;3.074;2023-06-14T12:15:58;7.78;;;4.97;;
48813;SDS011;34634;44.108;3.074;2023-06-14T12:18:33;10.48;;;4.90;;
48813;SDS011;34634;44.108;3.074;2023-06-14T12:21:06;6.45;;;5.18;;
48813;SDS011;34634;44.108;3.074;2023-06-14T12:23:45;5.43;;;4.70;;
48813;SDS011;34634;44.108;3.074;2023-06-14T12:26:20;6.38;;;4.30;;
48813;SDS011;34634;44.108;3.074;2023-06-14T12:28:47;6.53;;;5.07;;
48813;SDS011;34634;44.108;3.074;2023-06-14T12:31:14;10.70;;;4.43;;
48813;SDS011;34634;44.108;3.074;2023-06-14T12:33:41;5.03;;;4.40;;
48813;SDS011;34634;44.108;3.074;2023-06-14T12:36:08;5.05;;;4.65;;
48813;SDS011;34634;44.108;3.074;2023-06-14T12:38:35;6.95;;;4.47;;
48813;SDS011;34634;44.108;3.074;2023-06-14T12:41:05;6.03;;;4.33;;
48813;SDS011;34634;44.108;3.074;2023-06-14T12:43:33;5.93;;;5.20;;
48813;SDS011;34634;44.108;3.074;2023-06-14T12:45:59;7.43;;;4.13;;
48813;SDS011;34634;44.108;3.074;2023-06-14T12:48:26;6.70;;;5.20;;
48813;SDS011;34634;44.108;3.074;2023-06-14T12:53:23;7.47;;;4.95;;
48813;SDS011;34634;44.108;3.074;2023-06-14T12:55:49;8.57;;;4.78;;
48813;SDS011;34634;44.108;3.074;2023-06-14T12:58:15;7.53;;;4.90;;
48813;SDS011;34634;44.108;3.074;2023-06-14T13:00:45;4.93;;;4.38;;
48813;SDS011;34634;44.108;3.074;2023-06-14T13:03:11;5.07;;;4.45;;
48813;SDS011;34634;44.108;3.074;2023-06-14T13:05:37;5.13;;;4.63;;
48813;SDS011;34634;44.108;3.074;2023-06-14T13:08:07;7.05;;;4.45;;
48813;SDS011;34634;44.108;3.074;2023-06-14T13:10:36;5.18;;;4.63;;
48813;SDS011;34634;44.108;3.074;2023-06-14T13:13:02;16.45;;;4.60;;
48813;SDS011;34634;44.108;3.074;2023-06-14T13:15:29;7.20;;;5.03;;
48813;SDS011;34634;44.108;3.074;2023-06-14T13:17:55;7.03;;;4.82;;
48813;SDS011;34634;44.108;3.074;2023-06-14T13:20:22;6.00;;;4.40;;
48813;SDS011;34634;44.108;3.074;2023-06-14T13:22:48;7.70;;;4.13;;
48813;SDS011;34634;44.108;3.074;2023-06-14T13:25:14;6.65;;;4.78;;
48813;SDS011;34634;44.108;3.074;2023-06-14T13:27:41;5.20;;;4.70;;
48813;SDS011;34634;44.108;3.074;2023-06-14T13:30:07;5.97;;;5.10;;
48813;SDS011;34634;44.108;3.074;2023-06-14T13:32:34;6.78;;;5.00;;
48813;SDS011;34634;44.108;3.074;2023-06-14T13:35:01;9.55;;;4.72;;
48813;SDS011;34634;44.108;3.074;2023-06-14T13:37:29;5.50;;;4.97;;
48813;SDS011;34634;44.108;3.074;2023-06-14T13:39:55;8.05;;;5.63;;
48813;SDS011;34634;44.108;3.074;2023-06-14T13:42:22;14.70;;;6.00;;
48813;SDS011;34634;44.108;3.074;2023-06-14T13:44:48;7.38;;;6.10;;
48813;SDS011;34634;44.108;3.074;2023-06-14T13:47:16;10.00;;;6.50;;
48813;SDS011;34634;44.108;3.074;2023-06-14T13:49:42;6.35;;;5.75;;
48813;SDS011;34634;44.108;3.074;2023-06-14T13:52:09;9.32;;;6.30;;
48813;SDS011;34634;44.108;3.074;2023-06-14T13:54:36;6.90;;;6.20;;
48813;SDS011;34634;44.108;3.074;2023-06-14T13:57:03;9.75;;;6.32;;
48813;SDS011;34634;44.108;3.074;2023-06-14T13:59:29;6.68;;;5.95;;
48813;SDS011;34634;44.108;3.074;2023-06-14T14:01:56;8.18;;;6.20;;
48813;SDS011;34634;44.108;3.074;2023-06-14T14:04:22;7.25;;;5.90;;
48813;SDS011;34634;44.108;3.074;2023-06-14T14:06:49;6.50;;;5.63;;
48813;SDS011;34634;44.108;3.074;2023-06-14T14:09:15;6.35;;;5.75;;
48813;SDS011;34634;44.108;3.074;2023-06-14T14:11:41;8.13;;;5.80;;
48813;SDS011;34634;44.108;3.074;2023-06-14T14:14:08;7.25;;;5.90;;
48813;SDS011;34634;44.108;3.074;2023-06-14T14:16:35;8.75;;;5.70;;
48813;SDS011;34634;44.108;3.074;2023-06-14T14:19:02;7.22;;;6.32;;
48813;SDS011;34634;44.108;3.074;2023-06-14T14:21:29;14.25;;;6.22;;
48813;SDS011;34634;44.108;3.074;2023-06-14T14:23:55;8.63;;;5.90;;
48813;SDS011;34634;44.108;3.074;2023-06-14T14:26:22;7.32;;;6.57;;
48813;SDS011;34634;44.108;3.074;2023-06-14T14:28:48;7.22;;;6.22;;
48813;SDS011;34634;44.108;3.074;2023-06-14T14:31:15;7.22;;;6.50;;
48813;SDS011;34634;44.108;3.074;2023-06-14T14:33:41;12.70;;;6.70;;
48813;SDS011;34634;44.108;3.074;2023-06-14T14:36:07;7.70;;;6.93;;
48813;SDS011;34634;44.108;3.074;2023-06-14T14:38:34;8.20;;;6.90;;
48813;SDS011;34634;44.108;3.074;2023-06-14T14:41:00;9.05;;;6.80;;
48813;SDS011;34634;44.108;3.074;2023-06-14T14:43:27;9.55;;;6.97;;
48813;SDS011;34634;44.108;3.074;2023-06-14T14:45:56;10.52;;;7.00;;
48813;SDS011;34634;44.108;3.074;2023-06-14T14:48:22;13.27;;;7.53;;
48813;SDS011;34634;44.108;3.074;2023-06-14T14:50:49;9.95;;;7.88;;
48813;SDS011;34634;44.108;3.074;2023-06-14T14:53:15;10.13;;;7.50;;
48813;SDS011;34634;44.108;3.074;2023-06-14T14:55:42;10.05;;;7.35;;
48813;SDS011;34634;44.108;3.074;2023-06-14T14:58:08;10.52;;;7.80;;
48813;SDS011;34634;44.108;3.074;2023-06-14T15:00:35;9.43;;;6.82;;
48813;SDS011;34634;44.108;3.074;2023-06-14T15:03:01;7.85;;;7.03;;
48813;SDS011;34634;44.108;3.074;2023-06-14T15:05:27;8.05;;;6.95;;
48813;SDS011;34634;44.108;3.074;2023-06-14T15:07:54;10.85;;;6.72;;
48813;SDS011;34634;44.108;3.074;2023-06-14T15:10:20;9.70;;;6.88;;
48813;SDS011;34634;44.108;3.074;2023-06-14T15:12:47;8.30;;;6.13;;
48813;SDS011;34634;44.108;3.074;2023-06-14T15:15:13;7.00;;;6.30;;
48813;SDS011;34634;44.108;3.074;2023-06-14T15:17:39;6.90;;;6.20;;
48813;SDS011;34634;44.108;3.074;2023-06-14T15:20:06;6.65;;;5.90;;
48813;SDS011;34634;44.108;3.074;2023-06-14T15:22:32;7.60;;;5.38;;
48813;SDS011;34634;44.108;3.074;2023-06-14T15:24:59;13.20;;;5.63;;
48813;SDS011;34634;44.108;3.074;2023-06-14T15:27:25;7.68;;;5.63;;
48813;SDS011;34634;44.108;3.074;2023-06-14T15:29:52;6.03;;;5.28;;
48813;SDS011;34634;44.108;3.074;2023-06-14T15:32:19;6.95;;;5.00;;
48813;SDS011;34634;44.108;3.074;2023-06-14T15:34:45;5.93;;;5.10;;
48813;SDS011;34634;44.108;3.074;2023-06-14T15:37:11;8.02;;;5.28;;
48813;SDS011;34634;44.108;3.074;2023-06-14T15:39:38;6.10;;;5.00;;
48813;SDS011;34634;44.108;3.074;2023-06-14T15:42:04;10.68;;;5.53;;
48813;SDS011;34634;44.108;3.074;2023-06-14T15:44:32;6.47;;;4.90;;
48813;SDS011;34634;44.108;3.074;2023-06-14T15:46:58;7.50;;;5.18;;
48813;SDS011;34634;44.108;3.074;2023-06-14T15:49:25;5.00;;;4.50;;
48813;SDS011;34634;44.108;3.074;2023-06-14T15:51:51;6.18;;;4.93;;
48813;SDS011;34634;44.108;3.074;2023-06-14T15:54:18;6.60;;;4.82;;
48813;SDS011;34634;44.108;3.074;2023-06-14T15:56:44;6.88;;;4.82;;
48813;SDS011;34634;44.108;3.074;2023-06-14T15:59:11;6.57;;;4.75;;
48813;SDS011;34634;44.108;3.074;2023-06-14T16:01:37;5.82;;;4.43;;
48813;SDS011;34634;44.108;3.074;2023-06-14T16:04:04;4.82;;;4.30;;
48813;SDS011;34634;44.108;3.074;2023-06-14T16:06:30;5.50;;;3.92;;
48813;SDS011;34634;44.108;3.074;2023-06-14T16:08:57;5.05;;;3.85;;
48813;SDS011;34634;44.108;3.074;2023-06-14T16:11:23;5.57;;;3.60;;
48813;SDS011;34634;44.108;3.074;2023-06-14T16:13:49;6.03;;;4.40;;
48813;SDS011;34634;44.108;3.074;2023-06-14T16:16:16;4.57;;;3.40;;
48813;SDS011;34634;44.108;3.074;2023-06-14T16:18:42;5.25;;;4.18;;
48813;SDS011;34634;44.108;3.074;2023-06-14T16:21:08;6.78;;;4.30;;
48813;SDS011;34634;44.108;3.074;2023-06-14T16:23:35;6.03;;;4.60;;
48813;SDS011;34634;44.108;3.074;2023-06-14T16:26:02;5.22;;;4.30;;
48813;SDS011;34634;44.108;3.074;2023-06-14T16:28:29;6.70;;;4.35;;
48813;SDS011;34634;44.108;3.074;2023-06-14T16:30:57;5.85;;;4.47;;
48813;SDS011;34634;44.108;3.074;2023-06-14T16:33:23;4.72;;;4.28;;
48813;SDS011;34634;44.108;3.074;2023-06-14T16:35:49;7.47;;;4.43;;
48813;SDS011;34634;44.108;3.074;2023-06-14T16:38:16;5.97;;;4.40;;
48813;SDS011;34634;44.108;3.074;2023-06-14T16:40:42;5.10;;;4.22;;
48813;SDS011;34634;44.108;3.074;2023-06-14T16:43:08;6.25;;;4.90;;
48813;SDS011;34634;44.108;3.074;2023-06-14T16:45:35;7.07;;;5.05;;
48813;SDS011;34634;44.108;3.074;2023-06-14T16:48:01;6.13;;;5.00;;
48813;SDS011;34634;44.108;3.074;2023-06-14T16:50:27;8.18;;;4.85;;
48813;SDS011;34634;44.108;3.074;2023-06-14T16:52:54;8.90;;;5.35;;
48813;SDS011;34634;44.108;3.074;2023-06-14T16:55:20;5.18;;;4.68;;
48813;SDS011;34634;44.108;3.074;2023-06-14T16:57:46;7.95;;;5.07;;
48813;SDS011;34634;44.108;3.074;2023-06-14T17:00:13;6.90;;;4.97;;
48813;SDS011;34634;44.108;3.074;2023-06-14T17:02:39;8.52;;;5.28;;
48813;SDS011;34634;44.108;3.074;2023-06-14T17:05:06;6.85;;;4.85;;
48813;SDS011;34634;44.108;3.074;2023-06-14T17:07:32;6.10;;;5.00;;
48813;SDS011;34634;44.108;3.074;2023-06-14T17:09:59;7.07;;;4.47;;
48813;SDS011;34634;44.108;3.074;2023-06-14T17:12:25;8.38;;;4.63;;
48813;SDS011;34634;44.108;3.074;2023-06-14T17:14:51;5.72;;;5.00;;
48813;SDS011;34634;44.108;3.074;2023-06-14T17:17:18;5.55;;;5.03;;
48813;SDS011;34634;44.108;3.074;2023-06-14T17:19:44;6.97;;;4.85;;
48813;SDS011;34634;44.108;3.074;2023-06-14T17:22:10;6.38;;;5.68;;
48813;SDS011;34634;44.108;3.074;2023-06-14T17:24:37;5.65;;;5.10;;
48813;SDS011;34634;44.108;3.074;2023-06-14T17:27:03;5.63;;;5.03;;
48813;SDS011;34634;44.108;3.074;2023-06-14T17:29:30;5.57;;;4.80;;
48813;SDS011;34634;44.108;3.074;2023-06-14T17:31:57;7.43;;;4.70;;
48813;SDS011;34634;44.108;3.074;2023-06-14T17:34:23;7.38;;;5.30;;
48813;SDS011;34634;44.108;3.074;2023-06-14T17:36:49;6.13;;;4.78;;
48813;SDS011;34634;44.108;3.074;2023-06-14T17:39:19;7.53;;;4.75;;
48813;SDS011;34634;44.108;3.074;2023-06-14T17:41:45;5.47;;;4.88;;
48813;SDS011;34634;44.108;3.074;2023-06-14T17:44:12;11.10;;;5.00;;
48813;SDS011;34634;44.108;3.074;2023-06-14T17:46:38;7.65;;;5.40;;
48813;SDS011;34634;44.108;3.074;2023-06-14T17:49:04;7.93;;;4.78;;
48813;SDS011;34634;44.108;3.074;2023-06-14T17:51:31;6.35;;;5.47;;
48813;SDS011;34634;44.108;3.074;2023-06-14T17:53:57;11.13;;;4.88;;
48813;SDS011;34634;44.108;3.074;2023-06-14T17:56:23;7.20;;;4.90;;
48813;SDS011;34634;44.108;3.074;2023-06-14T17:58:50;5.82;;;4.60;;
48813;SDS011;34634;44.108;3.074;2023-06-14T18:01:18;5.38;;;4.68;;
48813;SDS011;34634;44.108;3.074;2023-06-14T18:03:46;5.28;;;4.15;;
48813;SDS011;34634;44.108;3.074;2023-06-14T18:06:12;9.57;;;4.80;;
48813;SDS011;34634;44.108;3.074;2023-06-14T18:08:38;7.97;;;4.85;;
48813;SDS011;34634;44.108;3.074;2023-06-14T18:11:05;7.25;;;4.47;;
48813;SDS011;34634;44.108;3.074;2023-06-14T18:13:32;7.15;;;4.63;;
48813;SDS011;34634;44.108;3.074;2023-06-14T18:15:58;9.73;;;4.63;;
48813;SDS011;34634;44.108;3.074;2023-06-14T18:18:25;10.68;;;4.47;;
48813;SDS011;34634;44.108;3.074;2023-06-14T18:20:51;6.55;;;4.90;;
48813;SDS011;34634;44.108;3.074;2023-06-14T18:23:17;8.70;;;4.90;;
48813;SDS011;34634;44.108;3.074;2023-06-14T18:25:44;6.85;;;5.05;;
48813;SDS011;34634;44.108;3.074;2023-06-14T18:28:10;5.18;;;4.47;;
48813;SDS011;34634;44.108;3.074;2023-06-14T18:30:37;11.80;;;4.63;;
48813;SDS011;34634;44.108;3.074;2023-06-14T18:33:03;10.10;;;4.88;;
48813;SDS011;34634;44.108;3.074;2023-06-14T18:35:29;7.80;;;4.68;;
48813;SDS011;34634;44.108;3.074;2023-06-14T18:37:56;8.60;;;4.80;;
48813;SDS011;34634;44.108;3.074;2023-06-14T18:40:22;8.25;;;4.35;;
48813;SDS011;34634;44.108;3.074;2023-06-14T18:42:48;8.90;;;4.95;;
48813;SDS011;34634;44.108;3.074;2023-06-14T18:45:15;9.52;;;4.57;;
48813;SDS011;34634;44.108;3.074;2023-06-14T18:47:41;6.88;;;4.88;;
48813;SDS011;34634;44.108;3.074;2023-06-14T18:50:08;6.57;;;4.68;;
48813;SDS011;34634;44.108;3.074;2023-06-14T18:52:34;11.30;;;4.65;;
48813;SDS011;34634;44.108;3.074;2023-06-14T18:55:01;8.85;;;5.20;;
48813;SDS011;34634;44.108;3.074;2023-06-14T18:57:27;8.60;;;4.78;;
48813;SDS011;34634;44.108;3.074;2023-06-14T18:59:53;7.15;;;4.93;;
48813;SDS011;34634;44.108;3.074;2023-06-14T19:02:20;7.78;;;5.07;;
48813;SDS011;34634;44.108;3.074;2023-06-14T19:04:46;11.23;;;5.07;;
48813;SDS011;34634;44.108;3.074;2023-06-14T19:07:12;10.93;;;4.82;;
48813;SDS011;34634;44.108;3.074;2023-06-14T19:09:39;10.88;;;4.93;;
48813;SDS011;34634;44.108;3.074;2023-06-14T19:12:05;12.20;;;4.75;;
48813;SDS011;34634;44.108;3.074;2023-06-14T19:14:32;13.75;;;4.97;;
48813;SDS011;34634;44.108;3.074;2023-06-14T19:16:58;9.43;;;5.18;;
48813;SDS011;34634;44.108;3.074;2023-06-14T19:19:24;10.57;;;4.90;;
48813;SDS011;34634;44.108;3.074;2023-06-14T19:21:51;12.52;;;4.30;;
48813;SDS011;34634;44.108;3.074;2023-06-14T19:24:17;10.40;;;5.03;;
48813;SDS011;34634;44.108;3.074;2023-06-14T19:26:44;11.27;;;5.03;;
48813;SDS011;34634;44.108;3.074;2023-06-14T19:29:10;10.35;;;5.20;;
48813;SDS011;34634;44.108;3.074;2023-06-14T19:31:36;10.85;;;5.03;;
48813;SDS011;34634;44.108;3.074;2023-06-14T19:34:03;8.98;;;5.40;;
48813;SDS011;34634;44.108;3.074;2023-06-14T19:36:29;7.25;;;4.55;;
48813;SDS011;34634;44.108;3.074;2023-06-14T19:38:56;8.45;;;4.97;;
48813;SDS011;34634;44.108;3.074;2023-06-14T19:41:22;11.35;;;5.10;;
48813;SDS011;34634;44.108;3.074;2023-06-14T19:43:53;9.30;;;5.13;;
48813;SDS011;34634;44.108;3.074;2023-06-14T19:46:22;9.25;;;5.20;;
48813;SDS011;34634;44.108;3.074;2023-06-14T19:48:50;6.88;;;4.75;;
48813;SDS011;34634;44.108;3.074;2023-06-14T19:51:16;9.35;;;4.50;;
48813;SDS011;34634;44.108;3.074;2023-06-14T19:53:43;7.72;;;5.00;;
48813;SDS011;34634;44.108;3.074;2023-06-14T19:56:10;8.40;;;5.10;;
48813;SDS011;34634;44.108;3.074;2023-06-14T19:58:37;7.63;;;4.63;;
48813;SDS011;34634;44.108;3.074;2023-06-14T20:01:04;10.82;;;5.25;;
48813;SDS011;34634;44.108;3.074;2023-06-14T20:03:31;10.27;;;5.35;;
48813;SDS011;34634;44.108;3.074;2023-06-14T20:05:57;7.35;;;5.18;;
48813;SDS011;34634;44.108;3.074;2023-06-14T20:08:23;8.32;;;4.97;;
48813;SDS011;34634;44.108;3.074;2023-06-14T20:10:51;7.55;;;4.78;;
48813;SDS011;34634;44.108;3.074;2023-06-14T20:13:18;6.05;;;5.00;;
48813;SDS011;34634;44.108;3.074;2023-06-14T20:15:44;8.07;;;4.68;;
48813;SDS011;34634;44.108;3.074;2023-06-14T20:18:11;8.88;;;4.68;;
48813;SDS011;34634;44.108;3.074;2023-06-14T20:20:40;9.50;;;4.70;;
48813;SDS011;34634;44.108;3.074;2023-06-14T20:23:07;8.70;;;4.55;;
48813;SDS011;34634;44.108;3.074;2023-06-14T20:25:33;10.95;;;4.90;;
48813;SDS011;34634;44.108;3.074;2023-06-14T20:28:00;8.60;;;5.10;;
48813;SDS011;34634;44.108;3.074;2023-06-14T20:30:26;5.97;;;4.70;;
48813;SDS011;34634;44.108;3.074;2023-06-14T20:32:52;9.13;;;5.15;;
48813;SDS011;34634;44.108;3.074;2023-06-14T20:35:18;9.32;;;4.65;;
48813;SDS011;34634;44.108;3.074;2023-06-14T20:37:45;11.10;;;4.60;;
48813;SDS011;34634;44.108;3.074;2023-06-14T20:40:21;4.82;;;4.03;;
48813;SDS011;34634;44.108;3.074;2023-06-14T20:42:48;9.30;;;4.38;;
48813;SDS011;34634;44.108;3.074;2023-06-14T20:45:15;10.00;;;4.90;;
48813;SDS011;34634;44.108;3.074;2023-06-14T20:47:42;7.93;;;4.90;;
48813;SDS011;34634;44.108;3.074;2023-06-14T20:50:08;8.15;;;4.15;;
48813;SDS011;34634;44.108;3.074;2023-06-14T20:52:37;10.10;;;4.75;;
48813;SDS011;34634;44.108;3.074;2023-06-14T20:55:03;14.18;;;4.30;;
48813;SDS011;34634;44.108;3.074;2023-06-14T20:57:30;7.47;;;4.30;;
48813;SDS011;34634;44.108;3.074;2023-06-14T20:59:56;5.00;;;4.43;;
48813;SDS011;34634;44.108;3.074;2023-06-14T21:02:23;6.88;;;4.60;;
48813;SDS011;34634;44.108;3.074;2023-06-14T21:04:49;11.88;;;4.68;;
48813;SDS011;34634;44.108;3.074;2023-06-14T21:07:16;10.13;;;4.38;;
48813;SDS011;34634;44.108;3.074;2023-06-14T21:09:42;10.00;;;5.00;;
48813;SDS011;34634;44.108;3.074;2023-06-14T21:12:10;8.48;;;4.93;;
48813;SDS011;34634;44.108;3.074;2023-06-14T21:14:37;6.68;;;5.00;;
48813;SDS011;34634;44.108;3.074;2023-06-14T21:17:03;8.45;;;4.70;;
48813;SDS011;34634;44.108;3.074;2023-06-14T21:19:30;9.27;;;4.28;;
48813;SDS011;34634;44.108;3.074;2023-06-14T21:21:57;10.40;;;4.53;;
48813;SDS011;34634;44.108;3.074;2023-06-14T21:24:23;9.27;;;4.40;;
48813;SDS011;34634;44.108;3.074;2023-06-14T21:26:49;7.53;;;4.88;;
48813;SDS011;34634;44.108;3.074;2023-06-14T21:29:16;9.88;;;4.50;;
48813;SDS011;34634;44.108;3.074;2023-06-14T21:31:42;15.60;;;5.13;;
48813;SDS011;34634;44.108;3.074;2023-06-14T21:34:08;11.30;;;4.80;;
48813;SDS011;34634;44.108;3.074;2023-06-14T21:36:35;5.63;;;4.13;;
48813;SDS011;34634;44.108;3.074;2023-06-14T21:39:01;13.10;;;4.78;;
48813;SDS011;34634;44.108;3.074;2023-06-14T21:41:28;7.13;;;4.72;;
48813;SDS011;34634;44.108;3.074;2023-06-14T21:43:54;9.50;;;4.82;;
48813;SDS011;34634;44.108;3.074;2023-06-14T21:46:21;11.52;;;5.07;;
48813;SDS011;34634;44.108;3.074;2023-06-14T21:48:47;13.35;;;4.20;;